sensor_id;sensor_type;location;lat;lon;timestamp;temperature;humidity
1367;DHT22;16877;48.810;9.282;2023-04-07T00:00:40;19.10;45.40
1367;DHT22;16877;48.810;9.282;2023-04-07T00:03:08;19.10;45.50
1367;DHT22;16877;48.810;9.282;2023-04-07T00:05:47;19.10;45.30
1367;DHT22;16877;48.810;9.282;2023-04-07T00:08:15;19.10;45.50
1367;DHT22;16877;48.810;9.282;2023-04-07T00:10:49;19.10;45.50
1367;DHT22;16877;48.810;9.282;2023-04-07T00:13:19;19.10;45.50
1367;DHT22;16877;48.810;9.282;2023-04-07T00:15:47;19.10;45.50
1367;DHT22;16877;48.810;9.282;2023-04-07T00:18:19;19.10;45.50
1367;DHT22;16877;48.810;9.282;2023-04-07T00:20:49;19.10;45.30
1367;DHT22;16877;48.810;9.282;2023-04-07T00:23:17;19.10;45.40
1367;DHT22;16877;48.810;9.282;2023-04-07T00:25:47;19.10;45.30
1367;DHT22;16877;48.810;9.282;2023-04-07T00:28:14;19.10;45.50
1367;DHT22;16877;48.810;9.282;2023-04-07T00:30:49;19.10;45.40
1367;DHT22;16877;48.810;9.282;2023-04-07T00:33:18;19.10;45.40
1367;DHT22;16877;48.810;9.282;2023-04-07T00:36:00;19.20;45.30
1367;DHT22;16877;48.810;9.282;2023-04-07T00:38:27;19.20;45.30
1367;DHT22;16877;48.810;9.282;2023-04-07T00:40:56;19.20;45.30
1367;DHT22;16877;48.810;9.282;2023-04-07T00:43:24;19.20;45.30
1367;DHT22;16877;48.810;9.282;2023-04-07T00:45:54;19.20;45.40
1367;DHT22;16877;48.810;9.282;2023-04-07T00:48:24;19.20;45.40
1367;DHT22;16877;48.810;9.282;2023-04-07T00:50:52;19.20;45.30
1367;DHT22;16877;48.810;9.282;2023-04-07T00:53:23;19.30;45.30
1367;DHT22;16877;48.810;9.282;2023-04-07T00:55:58;19.30;45.30
1367;DHT22;16877;48.810;9.282;2023-04-07T00:58:26;19.20;45.30
1367;DHT22;16877;48.810;9.282;2023-04-07T01:01:23;19.20;45.30
1367;DHT22;16877;48.810;9.282;2023-04-07T01:04:04;19.20;45.40
1367;DHT22;16877;48.810;9.282;2023-04-07T01:06:39;19.20;45.30
1367;DHT22;16877;48.810;9.282;2023-04-07T01:09:16;19.20;45.30
1367;DHT22;16877;48.810;9.282;2023-04-07T01:11:50;19.20;45.30
1367;DHT22;16877;48.810;9.282;2023-04-07T01:14:22;19.20;45.30
1367;DHT22;16877;48.810;9.282;2023-04-07T01:16:55;19.30;45.30
1367;DHT22;16877;48.810;9.282;2023-04-07T01:19:33;19.30;45.30
1367;DHT22;16877;48.810;9.282;2023-04-07T01:22:07;19.30;45.40
1367;DHT22;16877;48.810;9.282;2023-04-07T01:24:56;19.30;45.40
1367;DHT22;16877;48.810;9.282;2023-04-07T01:27:35;19.30;45.30
1367;DHT22;16877;48.810;9.282;2023-04-07T01:30:11;19.30;45.20
1367;DHT22;16877;48.810;9.282;2023-04-07T01:32:40;19.20;45.20
1367;DHT22;16877;48.810;9.282;2023-04-07T01:35:12;19.20;45.30
1367;DHT22;16877;48.810;9.282;2023-04-07T01:37:39;19.30;45.40
1367;DHT22;16877;48.810;9.282;2023-04-07T01:40:22;19.30;45.40
1367;DHT22;16877;48.810;9.282;2023-04-07T01:42:51;19.30;45.50
1367;DHT22;16877;48.810;9.282;2023-04-07T01:45:21;19.30;45.60
1367;DHT22;16877;48.810;9.282;2023-04-07T01:48:01;19.40;45.60
1367;DHT22;16877;48.810;9.282;2023-04-07T01:50:43;19.40;45.60
1367;DHT22;16877;48.810;9.282;2023-04-07T01:53:16;19.40;45.70
1367;DHT22;16877;48.810;9.282;2023-04-07T01:55:44;19.40;45.60
1367;DHT22;16877;48.810;9.282;2023-04-07T01:58:12;19.40;45.60
1367;DHT22;16877;48.810;9.282;2023-04-07T02:00:41;19.50;45.70
1367;DHT22;16877;48.810;9.282;2023-04-07T02:03:13;19.40;45.70
1367;DHT22;16877;48.810;9.282;2023-04-07T02:05:48;19.40;45.60
1367;DHT22;16877;48.810;9.282;2023-04-07T02:08:19;19.40;45.60
1367;DHT22;16877;48.810;9.282;2023-04-07T02:10:48;19.40;45.70
1367;DHT22;16877;48.810;9.282;2023-04-07T02:13:19;19.40;45.70
1367;DHT22;16877;48.810;9.282;2023-04-07T02:16:00;19.30;45.50
1367;DHT22;16877;48.810;9.282;2023-04-07T02:18:31;19.30;45.50
1367;DHT22;16877;48.810;9.282;2023-04-07T02:21:03;19.30;45.50
1367;DHT22;16877;48.810;9.282;2023-04-07T02:23:34;19.30;45.50
1367;DHT22;16877;48.810;9.282;2023-04-07T02:26:03;19.30;45.50
1367;DHT22;16877;48.810;9.282;2023-04-07T02:28:31;19.30;45.40
1367;DHT22;16877;48.810;9.282;2023-04-07T02:31:02;19.30;45.50
1367;DHT22;16877;48.810;9.282;2023-04-07T02:33:30;19.30;45.50
1367;DHT22;16877;48.810;9.282;2023-04-07T02:35:57;19.30;45.40
1367;DHT22;16877;48.810;9.282;2023-04-07T02:38:25;19.30;45.50
1367;DHT22;16877;48.810;9.282;2023-04-07T02:40:52;19.30;45.50
1367;DHT22;16877;48.810;9.282;2023-04-07T02:43:22;19.40;45.50
1367;DHT22;16877;48.810;9.282;2023-04-07T02:45:51;19.40;45.60
1367;DHT22;16877;48.810;9.282;2023-04-07T02:48:21;19.40;45.60
1367;DHT22;16877;48.810;9.282;2023-04-07T02:50:55;19.40;45.60
1367;DHT22;16877;48.810;9.282;2023-04-07T02:53:23;19.40;46.20
1367;DHT22;16877;48.810;9.282;2023-04-07T02:55:50;19.40;45.70
1367;DHT22;16877;48.810;9.282;2023-04-07T02:58:18;19.40;45.60
1367;DHT22;16877;48.810;9.282;2023-04-07T03:00:47;19.40;45.60
1367;DHT22;16877;48.810;9.282;2023-04-07T03:03:15;19.40;45.60
1367;DHT22;16877;48.810;9.282;2023-04-07T03:05:47;19.40;45.60
1367;DHT22;16877;48.810;9.282;2023-04-07T03:08:15;19.40;45.60
1367;DHT22;16877;48.810;9.282;2023-04-07T03:10:42;19.40;45.50
1367;DHT22;16877;48.810;9.282;2023-04-07T03:13:12;19.40;45.50
1367;DHT22;16877;48.810;9.282;2023-04-07T03:15:41;19.30;45.50
1367;DHT22;16877;48.810;9.282;2023-04-07T03:18:10;19.40;45.50
1367;DHT22;16877;48.810;9.282;2023-04-07T03:20:40;19.40;45.60
1367;DHT22;16877;48.810;9.282;2023-04-07T03:23:12;19.30;45.50
1367;DHT22;16877;48.810;9.282;2023-04-07T03:25:54;19.40;45.50
1367;DHT22;16877;48.810;9.282;2023-04-07T03:28:22;19.40;45.50
1367;DHT22;16877;48.810;9.282;2023-04-07T03:30:50;19.40;45.60
1367;DHT22;16877;48.810;9.282;2023-04-07T03:33:19;19.40;45.60
1367;DHT22;16877;48.810;9.282;2023-04-07T03:35:46;19.40;45.60
1367;DHT22;16877;48.810;9.282;2023-04-07T03:38:15;19.40;45.60
1367;DHT22;16877;48.810;9.282;2023-04-07T03:40:44;19.40;45.70
1367;DHT22;16877;48.810;9.282;2023-04-07T03:43:16;19.40;45.60
1367;DHT22;16877;48.810;9.282;2023-04-07T03:45:52;19.40;45.60
1367;DHT22;16877;48.810;9.282;2023-04-07T03:48:20;19.40;45.70
1367;DHT22;16877;48.810;9.282;2023-04-07T03:50:48;19.30;45.60
1367;DHT22;16877;48.810;9.282;2023-04-07T03:53:19;19.40;45.80
1367;DHT22;16877;48.810;9.282;2023-04-07T03:55:49;19.40;45.70
1367;DHT22;16877;48.810;9.282;2023-04-07T03:58:17;19.30;45.70
1367;DHT22;16877;48.810;9.282;2023-04-07T04:00:59;19.40;45.70
1367;DHT22;16877;48.810;9.282;2023-04-07T04:03:29;19.30;45.70
1367;DHT22;16877;48.810;9.282;2023-04-07T04:05:57;19.30;45.70
1367;DHT22;16877;48.810;9.282;2023-04-07T04:08:29;19.30;45.70
1367;DHT22;16877;48.810;9.282;2023-04-07T04:10:57;19.30;45.70
1367;DHT22;16877;48.810;9.282;2023-04-07T04:13:24;19.40;45.70
1367;DHT22;16877;48.810;9.282;2023-04-07T04:15:53;19.30;45.80
1367;DHT22;16877;48.810;9.282;2023-04-07T04:18:22;19.30;45.80
1367;DHT22;16877;48.810;9.282;2023-04-07T04:21:04;19.40;45.80
1367;DHT22;16877;48.810;9.282;2023-04-07T04:23:36;19.30;46.30
1367;DHT22;16877;48.810;9.282;2023-04-07T04:26:04;19.30;45.80
1367;DHT22;16877;48.810;9.282;2023-04-07T04:28:39;19.30;45.90
1367;DHT22;16877;48.810;9.282;2023-04-07T04:31:06;19.30;45.90
1367;DHT22;16877;48.810;9.282;2023-04-07T04:33:44;19.30;45.90
1367;DHT22;16877;48.810;9.282;2023-04-07T04:36:13;19.30;45.90
1367;DHT22;16877;48.810;9.282;2023-04-07T04:38:55;19.30;46.00
1367;DHT22;16877;48.810;9.282;2023-04-07T04:41:23;19.30;46.00
1367;DHT22;16877;48.810;9.282;2023-04-07T04:43:56;19.30;46.00
1367;DHT22;16877;48.810;9.282;2023-04-07T04:46:24;19.30;46.00
1367;DHT22;16877;48.810;9.282;2023-04-07T04:48:52;19.30;46.10
1367;DHT22;16877;48.810;9.282;2023-04-07T04:51:19;19.30;46.10
1367;DHT22;16877;48.810;9.282;2023-04-07T04:53:48;19.30;46.20
1367;DHT22;16877;48.810;9.282;2023-04-07T04:56:27;19.30;46.20
1367;DHT22;16877;48.810;9.282;2023-04-07T04:58:55;19.30;46.20
1367;DHT22;16877;48.810;9.282;2023-04-07T05:01:25;19.30;46.30
1367;DHT22;16877;48.810;9.282;2023-04-07T05:03:53;19.30;46.30
1367;DHT22;16877;48.810;9.282;2023-04-07T05:06:20;19.30;46.40
1367;DHT22;16877;48.810;9.282;2023-04-07T05:08:48;19.30;46.30
1367;DHT22;16877;48.810;9.282;2023-04-07T05:11:15;19.30;46.30
1367;DHT22;16877;48.810;9.282;2023-04-07T05:13:45;19.30;46.40
1367;DHT22;16877;48.810;9.282;2023-04-07T05:16:13;19.30;46.40
1367;DHT22;16877;48.810;9.282;2023-04-07T05:18:41;19.30;46.50
1367;DHT22;16877;48.810;9.282;2023-04-07T05:21:08;19.30;46.50
1367;DHT22;16877;48.810;9.282;2023-04-07T05:23:36;19.30;46.40
1367;DHT22;16877;48.810;9.282;2023-04-07T05:26:03;19.30;46.40
1367;DHT22;16877;48.810;9.282;2023-04-07T05:28:32;19.30;46.40
1367;DHT22;16877;48.810;9.282;2023-04-07T05:31:01;19.30;46.40
1367;DHT22;16877;48.810;9.282;2023-04-07T05:33:29;19.30;46.40
1367;DHT22;16877;48.810;9.282;2023-04-07T05:35:57;19.30;46.40
1367;DHT22;16877;48.810;9.282;2023-04-07T05:38:24;19.30;46.40
1367;DHT22;16877;48.810;9.282;2023-04-07T05:40:51;19.30;46.50
1367;DHT22;16877;48.810;9.282;2023-04-07T05:43:20;19.30;46.50
1367;DHT22;16877;48.810;9.282;2023-04-07T05:45:47;19.30;46.50
1367;DHT22;16877;48.810;9.282;2023-04-07T05:48:16;19.30;46.50
1367;DHT22;16877;48.810;9.282;2023-04-07T05:50:44;19.30;46.60
1367;DHT22;16877;48.810;9.282;2023-04-07T05:53:11;19.30;46.60
1367;DHT22;16877;48.810;9.282;2023-04-07T05:55:41;19.30;46.60
1367;DHT22;16877;48.810;9.282;2023-04-07T05:58:09;19.30;46.60
1367;DHT22;16877;48.810;9.282;2023-04-07T06:00:36;19.30;46.70
1367;DHT22;16877;48.810;9.282;2023-04-07T06:03:04;19.40;46.70
1367;DHT22;16877;48.810;9.282;2023-04-07T06:05:33;19.40;46.80
1367;DHT22;16877;48.810;9.282;2023-04-07T06:08:00;19.40;46.80
1367;DHT22;16877;48.810;9.282;2023-04-07T06:10:27;19.40;46.80
1367;DHT22;16877;48.810;9.282;2023-04-07T06:12:55;19.40;46.70
1367;DHT22;16877;48.810;9.282;2023-04-07T06:15:23;19.40;46.80
1367;DHT22;16877;48.810;9.282;2023-04-07T06:17:50;19.50;46.80
1367;DHT22;16877;48.810;9.282;2023-04-07T06:20:18;19.50;46.80
1367;DHT22;16877;48.810;9.282;2023-04-07T06:22:49;19.50;46.90
1367;DHT22;16877;48.810;9.282;2023-04-07T06:25:16;19.50;47.40
1367;DHT22;16877;48.810;9.282;2023-04-07T06:27:45;19.50;46.80
1367;DHT22;16877;48.810;9.282;2023-04-07T06:30:14;19.50;47.50
1367;DHT22;16877;48.810;9.282;2023-04-07T06:32:41;19.70;47.90
1367;DHT22;16877;48.810;9.282;2023-04-07T06:35:09;19.80;47.50
1367;DHT22;16877;48.810;9.282;2023-04-07T06:37:36;19.90;47.30
1367;DHT22;16877;48.810;9.282;2023-04-07T06:40:20;20.20;49.30
1367;DHT22;16877;48.810;9.282;2023-04-07T06:42:51;20.60;50.00
1367;DHT22;16877;48.810;9.282;2023-04-07T06:45:32;21.10;48.90
1367;DHT22;16877;48.810;9.282;2023-04-07T06:48:10;21.50;48.20
1367;DHT22;16877;48.810;9.282;2023-04-07T06:50:50;21.90;47.90
1367;DHT22;16877;48.810;9.282;2023-04-07T06:59:52;22.70;46.80
1367;DHT22;16877;48.810;9.282;2023-04-07T07:02:23;22.90;46.40
1367;DHT22;16877;48.810;9.282;2023-04-07T07:05:13;23.20;46.20
1367;DHT22;16877;48.810;9.282;2023-04-07T07:07:54;23.20;45.80
1367;DHT22;16877;48.810;9.282;2023-04-07T07:10:26;23.10;45.40
1367;DHT22;16877;48.810;9.282;2023-04-07T07:13:09;23.00;45.00
1367;DHT22;16877;48.810;9.282;2023-04-07T07:15:53;22.80;45.00
1367;DHT22;16877;48.810;9.282;2023-04-07T07:18:42;22.70;44.90
1367;DHT22;16877;48.810;9.282;2023-04-07T07:21:11;22.60;44.80
1367;DHT22;16877;48.810;9.282;2023-04-07T07:23:49;22.60;44.90
1367;DHT22;16877;48.810;9.282;2023-04-07T07:26:17;22.50;45.00
1367;DHT22;16877;48.810;9.282;2023-04-07T07:28:44;22.50;44.90
1367;DHT22;16877;48.810;9.282;2023-04-07T07:31:14;22.50;44.90
1367;DHT22;16877;48.810;9.282;2023-04-07T07:33:41;22.50;44.80
1367;DHT22;16877;48.810;9.282;2023-04-07T07:36:10;22.70;44.80
1367;DHT22;16877;48.810;9.282;2023-04-07T07:38:39;22.80;44.90
1367;DHT22;16877;48.810;9.282;2023-04-07T07:41:07;22.90;44.80
1367;DHT22;16877;48.810;9.282;2023-04-07T07:43:34;23.00;44.80
1367;DHT22;16877;48.810;9.282;2023-04-07T07:46:02;23.10;44.70
1367;DHT22;16877;48.810;9.282;2023-04-07T07:48:33;23.30;44.70
1367;DHT22;16877;48.810;9.282;2023-04-07T07:51:04;23.40;44.70
1367;DHT22;16877;48.810;9.282;2023-04-07T07:53:31;23.50;44.70
1367;DHT22;16877;48.810;9.282;2023-04-07T07:55:59;23.60;44.50
1367;DHT22;16877;48.810;9.282;2023-04-07T07:58:27;23.80;44.60
1367;DHT22;16877;48.810;9.282;2023-04-07T08:00:58;23.80;44.50
1367;DHT22;16877;48.810;9.282;2023-04-07T08:03:37;23.80;44.30
1367;DHT22;16877;48.810;9.282;2023-04-07T08:06:36;23.90;44.20
1367;DHT22;16877;48.810;9.282;2023-04-07T08:09:16;24.00;43.90
1367;DHT22;16877;48.810;9.282;2023-04-07T08:11:48;24.10;43.30
1367;DHT22;16877;48.810;9.282;2023-04-07T08:14:19;24.20;43.20
1367;DHT22;16877;48.810;9.282;2023-04-07T08:16:58;24.30;43.20
1367;DHT22;16877;48.810;9.282;2023-04-07T08:19:30;24.50;42.90
1367;DHT22;16877;48.810;9.282;2023-04-07T08:22:03;24.60;42.60
1367;DHT22;16877;48.810;9.282;2023-04-07T08:24:33;24.70;42.60
1367;DHT22;16877;48.810;9.282;2023-04-07T08:27:14;24.80;41.60
1367;DHT22;16877;48.810;9.282;2023-04-07T08:30:01;24.90;41.70
1367;DHT22;16877;48.810;9.282;2023-04-07T08:36:26;25.00;40.40
1367;DHT22;16877;48.810;9.282;2023-04-07T08:39:10;25.00;40.40
1367;DHT22;16877;48.810;9.282;2023-04-07T08:41:44;25.00;40.20
1367;DHT22;16877;48.810;9.282;2023-04-07T08:44:27;24.80;39.90
1367;DHT22;16877;48.810;9.282;2023-04-07T08:46:59;24.60;39.30
1367;DHT22;16877;48.810;9.282;2023-04-07T08:49:41;24.60;39.80
1367;DHT22;16877;48.810;9.282;2023-04-07T08:52:40;24.60;39.90
1367;DHT22;16877;48.810;9.282;2023-04-07T08:55:13;24.50;40.20
1367;DHT22;16877;48.810;9.282;2023-04-07T09:00:54;24.40;40.50
1367;DHT22;16877;48.810;9.282;2023-04-07T09:03:47;24.20;40.40
1367;DHT22;16877;48.810;9.282;2023-04-07T09:06:20;24.10;40.20
1367;DHT22;16877;48.810;9.282;2023-04-07T09:08:51;24.10;40.40
1367;DHT22;16877;48.810;9.282;2023-04-07T09:11:25;24.00;40.10
1367;DHT22;16877;48.810;9.282;2023-04-07T09:14:07;23.90;40.10
1367;DHT22;16877;48.810;9.282;2023-04-07T09:16:40;23.90;40.20
1367;DHT22;16877;48.810;9.282;2023-04-07T09:19:13;23.80;40.40
1367;DHT22;16877;48.810;9.282;2023-04-07T09:21:51;23.80;40.50
1367;DHT22;16877;48.810;9.282;2023-04-07T09:24:33;23.80;40.50
1367;DHT22;16877;48.810;9.282;2023-04-07T09:27:24;23.80;40.70
1367;DHT22;16877;48.810;9.282;2023-04-07T09:30:10;23.80;40.60
1367;DHT22;16877;48.810;9.282;2023-04-07T09:32:40;23.70;40.60
1367;DHT22;16877;48.810;9.282;2023-04-07T09:35:13;23.70;40.60
1367;DHT22;16877;48.810;9.282;2023-04-07T09:38:01;23.70;40.60
1367;DHT22;16877;48.810;9.282;2023-04-07T09:40:35;23.80;40.80
1367;DHT22;16877;48.810;9.282;2023-04-07T09:43:19;23.80;40.40
1367;DHT22;16877;48.810;9.282;2023-04-07T09:45:47;23.90;41.20
1367;DHT22;16877;48.810;9.282;2023-04-07T09:48:18;23.90;41.40
1367;DHT22;16877;48.810;9.282;2023-04-07T09:50:47;24.00;41.00
1367;DHT22;16877;48.810;9.282;2023-04-07T09:53:18;24.00;40.90
1367;DHT22;16877;48.810;9.282;2023-04-07T09:56:00;24.10;41.00
1367;DHT22;16877;48.810;9.282;2023-04-07T09:58:35;24.20;41.10
1367;DHT22;16877;48.810;9.282;2023-04-07T10:01:06;24.20;41.10
1367;DHT22;16877;48.810;9.282;2023-04-07T10:03:37;24.30;41.10
1367;DHT22;16877;48.810;9.282;2023-04-07T10:06:06;24.40;41.00
1367;DHT22;16877;48.810;9.282;2023-04-07T10:08:35;24.50;41.10
1367;DHT22;16877;48.810;9.282;2023-04-07T10:11:04;24.50;41.10
1367;DHT22;16877;48.810;9.282;2023-04-07T10:13:42;24.60;41.10
1367;DHT22;16877;48.810;9.282;2023-04-07T10:16:10;24.60;41.00
1367;DHT22;16877;48.810;9.282;2023-04-07T10:18:38;24.70;41.00
1367;DHT22;16877;48.810;9.282;2023-04-07T10:21:12;24.80;41.70
1367;DHT22;16877;48.810;9.282;2023-04-07T10:23:48;24.80;41.00
1367;DHT22;16877;48.810;9.282;2023-04-07T10:26:25;24.90;41.00
1367;DHT22;16877;48.810;9.282;2023-04-07T10:28:59;24.90;40.90
1367;DHT22;16877;48.810;9.282;2023-04-07T10:31:29;25.00;40.90
1367;DHT22;16877;48.810;9.282;2023-04-07T10:34:18;25.20;41.00
1367;DHT22;16877;48.810;9.282;2023-04-07T10:37:10;25.60;41.00
1367;DHT22;16877;48.810;9.282;2023-04-07T10:39:43;25.70;40.80
1367;DHT22;16877;48.810;9.282;2023-04-07T10:42:44;25.80;40.70
1367;DHT22;16877;48.810;9.282;2023-04-07T10:45:16;25.80;40.80
1367;DHT22;16877;48.810;9.282;2023-04-07T10:48:13;25.90;40.60
1367;DHT22;16877;48.810;9.282;2023-04-07T10:51:15;26.10;40.50
1367;DHT22;16877;48.810;9.282;2023-04-07T10:54:17;26.30;40.30
1367;DHT22;16877;48.810;9.282;2023-04-07T10:57:10;26.80;40.30
1367;DHT22;16877;48.810;9.282;2023-04-07T11:00:19;27.00;40.00
1367;DHT22;16877;48.810;9.282;2023-04-07T11:02:48;27.40;39.50
1367;DHT22;16877;48.810;9.282;2023-04-07T11:05:20;27.60;39.40
1367;DHT22;16877;48.810;9.282;2023-04-07T11:08:03;27.90;39.40
1367;DHT22;16877;48.810;9.282;2023-04-07T11:10:32;28.10;39.20
1367;DHT22;16877;48.810;9.282;2023-04-07T11:13:08;28.10;38.90
1367;DHT22;16877;48.810;9.282;2023-04-07T11:15:52;28.10;38.90
1367;DHT22;16877;48.810;9.282;2023-04-07T11:18:34;28.10;38.70
1367;DHT22;16877;48.810;9.282;2023-04-07T11:21:03;28.60;38.60
1367;DHT22;16877;48.810;9.282;2023-04-07T11:23:37;29.00;40.30
1367;DHT22;16877;48.810;9.282;2023-04-07T11:26:11;29.50;40.00
1367;DHT22;16877;48.810;9.282;2023-04-07T11:28:45;29.50;39.10
1367;DHT22;16877;48.810;9.282;2023-04-07T11:31:28;29.20;38.80
1367;DHT22;16877;48.810;9.282;2023-04-07T11:33:58;28.90;38.60
1367;DHT22;16877;48.810;9.282;2023-04-07T11:36:30;28.80;38.50
1367;DHT22;16877;48.810;9.282;2023-04-07T11:39:20;28.90;38.40
1367;DHT22;16877;48.810;9.282;2023-04-07T11:42:00;29.00;38.10
1367;DHT22;16877;48.810;9.282;2023-04-07T11:44:28;29.10;38.10
1367;DHT22;16877;48.810;9.282;2023-04-07T11:47:12;29.20;38.10
1367;DHT22;16877;48.810;9.282;2023-04-07T11:49:54;29.70;38.00
1367;DHT22;16877;48.810;9.282;2023-04-07T11:52:46;29.80;37.90
1367;DHT22;16877;48.810;9.282;2023-04-07T11:55:18;30.00;37.50
1367;DHT22;16877;48.810;9.282;2023-04-07T11:57:49;29.90;37.30
1367;DHT22;16877;48.810;9.282;2023-04-07T12:00:31;29.70;37.30
1367;DHT22;16877;48.810;9.282;2023-04-07T12:03:10;29.60;37.50
1367;DHT22;16877;48.810;9.282;2023-04-07T12:05:43;29.60;37.50
1367;DHT22;16877;48.810;9.282;2023-04-07T12:08:47;29.80;37.50
1367;DHT22;16877;48.810;9.282;2023-04-07T12:11:22;29.40;37.40
1367;DHT22;16877;48.810;9.282;2023-04-07T12:13:52;29.20;37.60
1367;DHT22;16877;48.810;9.282;2023-04-07T12:16:37;28.90;37.50
1367;DHT22;16877;48.810;9.282;2023-04-07T12:19:21;28.40;37.30
1367;DHT22;16877;48.810;9.282;2023-04-07T12:21:54;28.00;37.50
1367;DHT22;16877;48.810;9.282;2023-04-07T12:24:33;27.80;37.70
1367;DHT22;16877;48.810;9.282;2023-04-07T12:27:15;27.50;37.90
1367;DHT22;16877;48.810;9.282;2023-04-07T12:29:42;27.30;38.20
1367;DHT22;16877;48.810;9.282;2023-04-07T12:32:10;27.10;38.40
1367;DHT22;16877;48.810;9.282;2023-04-07T12:34:39;26.90;38.80
1367;DHT22;16877;48.810;9.282;2023-04-07T12:37:08;26.80;39.20
1367;DHT22;16877;48.810;9.282;2023-04-07T12:39:36;26.70;39.70
1367;DHT22;16877;48.810;9.282;2023-04-07T12:42:05;26.60;40.40
1367;DHT22;16877;48.810;9.282;2023-04-07T12:44:36;26.40;40.30
1367;DHT22;16877;48.810;9.282;2023-04-07T12:47:08;26.40;40.10
1367;DHT22;16877;48.810;9.282;2023-04-07T12:49:36;26.30;40.00
1367;DHT22;16877;48.810;9.282;2023-04-07T12:52:06;26.00;39.80
1367;DHT22;16877;48.810;9.282;2023-04-07T12:54:35;25.90;40.00
1367;DHT22;16877;48.810;9.282;2023-04-07T12:57:03;25.70;40.20
1367;DHT22;16877;48.810;9.282;2023-04-07T12:59:33;25.60;40.40
1367;DHT22;16877;48.810;9.282;2023-04-07T13:02:05;25.50;40.60
1367;DHT22;16877;48.810;9.282;2023-04-07T13:04:36;25.30;40.90
1367;DHT22;16877;48.810;9.282;2023-04-07T13:07:06;25.20;41.10
1367;DHT22;16877;48.810;9.282;2023-04-07T13:09:34;25.10;41.20
1367;DHT22;16877;48.810;9.282;2023-04-07T13:12:02;25.00;41.00
1367;DHT22;16877;48.810;9.282;2023-04-07T13:14:30;24.90;41.20
1367;DHT22;16877;48.810;9.282;2023-04-07T13:16:58;24.80;41.20
1367;DHT22;16877;48.810;9.282;2023-04-07T13:19:26;24.80;41.30
1367;DHT22;16877;48.810;9.282;2023-04-07T13:21:53;24.70;41.30
1367;DHT22;16877;48.810;9.282;2023-04-07T13:24:23;24.60;41.40
1367;DHT22;16877;48.810;9.282;2023-04-07T13:26:52;24.60;41.30
1367;DHT22;16877;48.810;9.282;2023-04-07T13:29:22;24.50;41.30
1367;DHT22;16877;48.810;9.282;2023-04-07T13:31:50;24.50;41.40
1367;DHT22;16877;48.810;9.282;2023-04-07T13:34:20;24.40;41.50
1367;DHT22;16877;48.810;9.282;2023-04-07T13:36:47;24.40;41.50
1367;DHT22;16877;48.810;9.282;2023-04-07T13:39:15;24.30;41.40
1367;DHT22;16877;48.810;9.282;2023-04-07T13:41:48;24.30;41.40
1367;DHT22;16877;48.810;9.282;2023-04-07T13:44:18;24.30;41.20
1367;DHT22;16877;48.810;9.282;2023-04-07T13:46:51;24.20;41.20
1367;DHT22;16877;48.810;9.282;2023-04-07T13:49:19;24.20;41.30
1367;DHT22;16877;48.810;9.282;2023-04-07T13:51:46;24.10;41.10
1367;DHT22;16877;48.810;9.282;2023-04-07T13:54:16;24.00;41.10
1367;DHT22;16877;48.810;9.282;2023-04-07T13:56:49;24.00;41.20
1367;DHT22;16877;48.810;9.282;2023-04-07T13:59:24;24.00;41.30
1367;DHT22;16877;48.810;9.282;2023-04-07T14:01:52;24.00;41.50
1367;DHT22;16877;48.810;9.282;2023-04-07T14:04:19;23.90;41.50
1367;DHT22;16877;48.810;9.282;2023-04-07T14:06:50;23.90;41.60
1367;DHT22;16877;48.810;9.282;2023-04-07T14:09:29;23.90;41.60
1367;DHT22;16877;48.810;9.282;2023-04-07T14:12:01;23.90;41.60
1367;DHT22;16877;48.810;9.282;2023-04-07T14:14:31;23.90;41.70
1367;DHT22;16877;48.810;9.282;2023-04-07T14:17:00;23.90;41.70
1367;DHT22;16877;48.810;9.282;2023-04-07T14:19:27;23.90;41.80
1367;DHT22;16877;48.810;9.282;2023-04-07T14:21:55;24.00;41.80
1367;DHT22;16877;48.810;9.282;2023-04-07T14:24:22;23.90;41.70
1367;DHT22;16877;48.810;9.282;2023-04-07T14:26:51;23.90;41.70
1367;DHT22;16877;48.810;9.282;2023-04-07T14:29:30;24.00;41.70
1367;DHT22;16877;48.810;9.282;2023-04-07T14:31:58;24.00;41.60
1367;DHT22;16877;48.810;9.282;2023-04-07T14:34:27;24.00;41.50
1367;DHT22;16877;48.810;9.282;2023-04-07T14:36:58;24.10;41.50
1367;DHT22;16877;48.810;9.282;2023-04-07T14:39:26;24.10;41.50
1367;DHT22;16877;48.810;9.282;2023-04-07T14:41:54;24.20;41.50
1367;DHT22;16877;48.810;9.282;2023-04-07T14:44:22;24.20;41.50
1367;DHT22;16877;48.810;9.282;2023-04-07T14:46:59;24.20;41.40
1367;DHT22;16877;48.810;9.282;2023-04-07T14:49:27;24.20;41.40
1367;DHT22;16877;48.810;9.282;2023-04-07T14:51:55;24.20;41.40
1367;DHT22;16877;48.810;9.282;2023-04-07T14:54:23;24.20;41.40
1367;DHT22;16877;48.810;9.282;2023-04-07T14:56:50;24.30;41.40
1367;DHT22;16877;48.810;9.282;2023-04-07T14:59:18;24.20;41.00
1367;DHT22;16877;48.810;9.282;2023-04-07T15:01:45;24.20;40.90
1367;DHT22;16877;48.810;9.282;2023-04-07T15:04:22;24.20;40.80
1367;DHT22;16877;48.810;9.282;2023-04-07T15:06:52;24.20;40.70
1367;DHT22;16877;48.810;9.282;2023-04-07T15:09:24;24.20;40.70
1367;DHT22;16877;48.810;9.282;2023-04-07T15:11:52;24.20;40.70
1367;DHT22;16877;48.810;9.282;2023-04-07T15:14:21;24.20;40.60
1367;DHT22;16877;48.810;9.282;2023-04-07T15:16:48;24.20;41.20
1367;DHT22;16877;48.810;9.282;2023-04-07T15:19:25;24.20;40.70
1367;DHT22;16877;48.810;9.282;2023-04-07T15:21:53;24.20;40.70
1367;DHT22;16877;48.810;9.282;2023-04-07T15:24:21;24.10;40.70
1367;DHT22;16877;48.810;9.282;2023-04-07T15:26:49;24.20;40.90
1367;DHT22;16877;48.810;9.282;2023-04-07T15:29:21;24.10;40.80
1367;DHT22;16877;48.810;9.282;2023-04-07T15:31:49;24.10;40.80
1367;DHT22;16877;48.810;9.282;2023-04-07T15:34:18;24.10;40.80
1367;DHT22;16877;48.810;9.282;2023-04-07T15:36:45;24.10;40.90
1367;DHT22;16877;48.810;9.282;2023-04-07T15:39:21;24.10;40.90
1367;DHT22;16877;48.810;9.282;2023-04-07T15:41:48;24.00;41.00
1367;DHT22;16877;48.810;9.282;2023-04-07T15:44:16;24.00;41.00
1367;DHT22;16877;48.810;9.282;2023-04-07T15:46:46;24.00;41.10
1367;DHT22;16877;48.810;9.282;2023-04-07T15:49:13;24.00;41.20
1367;DHT22;16877;48.810;9.282;2023-04-07T15:51:56;24.00;41.30
1367;DHT22;16877;48.810;9.282;2023-04-07T15:54:24;24.00;41.40
1367;DHT22;16877;48.810;9.282;2023-04-07T15:56:52;24.00;41.50
1367;DHT22;16877;48.810;9.282;2023-04-07T15:59:20;24.00;41.50
1367;DHT22;16877;48.810;9.282;2023-04-07T16:01:48;24.00;41.60
1367;DHT22;16877;48.810;9.282;2023-04-07T16:04:16;24.10;41.60
1367;DHT22;16877;48.810;9.282;2023-04-07T16:06:44;24.10;41.50
1367;DHT22;16877;48.810;9.282;2023-04-07T16:09:13;24.40;41.70
1367;DHT22;16877;48.810;9.282;2023-04-07T16:11:40;24.50;41.70
1367;DHT22;16877;48.810;9.282;2023-04-07T16:14:07;24.60;41.80
1367;DHT22;16877;48.810;9.282;2023-04-07T16:16:39;24.60;41.70
1367;DHT22;16877;48.810;9.282;2023-04-07T16:19:10;24.60;41.70
1367;DHT22;16877;48.810;9.282;2023-04-07T16:21:39;24.60;41.60
1367;DHT22;16877;48.810;9.282;2023-04-07T16:24:06;24.60;41.40
1367;DHT22;16877;48.810;9.282;2023-04-07T16:26:35;24.60;41.30
1367;DHT22;16877;48.810;9.282;2023-04-07T16:29:03;24.60;41.10
1367;DHT22;16877;48.810;9.282;2023-04-07T16:31:31;24.50;40.90